sensor_id;sensor_type;location;lat;lon;timestamp;P1;durP1;ratioP1;P2;durP2;ratioP2
62102;SDS011;48077;48.104;11.702;2024-01-30T00:01:29;7.53;;;4.75;;
62102;SDS011;48077;48.104;11.702;2024-01-30T00:03:57;6.32;;;4.53;;
62102;SDS011;48077;48.104;11.702;2024-01-30T00:08:54;7.32;;;4.63;;
62102;SDS011;48077;48.104;11.702;2024-01-30T00:11:21;5.45;;;4.32;;
62102;SDS011;48077;48.104;11.702;2024-01-30T00:13:51;6.65;;;4.97;;
62102;SDS011;48077;48.104;11.702;2024-01-30T00:16:21;6.30;;;4.50;;
62102;SDS011;48077;48.104;11.702;2024-01-30T00:18:50;8.50;;;5.50;;
62102;SDS011;48077;48.104;11.702;2024-01-30T00:21:18;6.10;;;4.32;;
62102;SDS011;48077;48.104;11.702;2024-01-30T00:26:14;5.88;;;4.43;;
62102;SDS011;48077;48.104;11.702;2024-01-30T00:31:09;6.20;;;5.13;;
62102;SDS011;48077;48.104;11.702;2024-01-30T00:33:40;4.57;;;4.10;;
62102;SDS011;48077;48.104;11.702;2024-01-30T00:36:08;6.75;;;5.15;;
62102;SDS011;48077;48.104;11.702;2024-01-30T00:38:37;5.75;;;4.88;;
62102;SDS011;48077;48.104;11.702;2024-01-30T00:41:05;6.57;;;5.78;;
62102;SDS011;48077;48.104;11.702;2024-01-30T00:43:32;7.30;;;4.22;;
62102;SDS011;48077;48.104;11.702;2024-01-30T00:46:00;7.75;;;5.32;;
62102;SDS011;48077;48.104;11.702;2024-01-30T00:50:57;7.18;;;5.18;;
62102;SDS011;48077;48.104;11.702;2024-01-30T00:53:25;6.57;;;5.38;;
62102;SDS011;48077;48.104;11.702;2024-01-30T00:55:53;6.15;;;4.22;;
62102;SDS011;48077;48.104;11.702;2024-01-30T00:58:21;6.47;;;5.57;;
62102;SDS011;48077;48.104;11.702;2024-01-30T01:00:49;7.53;;;5.03;;
62102;SDS011;48077;48.104;11.702;2024-01-30T01:07:44;6.72;;;5.88;;
62102;SDS011;48077;48.104;11.702;2024-01-30T01:10:14;5.80;;;4.30;;
62102;SDS011;48077;48.104;11.702;2024-01-30T01:12:42;5.43;;;4.90;;
62102;SDS011;48077;48.104;11.702;2024-01-30T01:15:10;8.02;;;7.32;;
62102;SDS011;48077;48.104;11.702;2024-01-30T01:17:38;5.88;;;4.60;;
62102;SDS011;48077;48.104;11.702;2024-01-30T01:20:06;5.07;;;4.43;;
62102;SDS011;48077;48.104;11.702;2024-01-30T01:22:37;5.15;;;3.95;;
62102;SDS011;48077;48.104;11.702;2024-01-30T01:25:08;5.28;;;4.20;;
62102;SDS011;48077;48.104;11.702;2024-01-30T01:27:36;6.72;;;4.75;;
62102;SDS011;48077;48.104;11.702;2024-01-30T01:30:08;5.80;;;4.32;;
62102;SDS011;48077;48.104;11.702;2024-01-30T01:32:38;8.07;;;5.20;;
62102;SDS011;48077;48.104;11.702;2024-01-30T01:35:11;7.75;;;5.05;;
62102;SDS011;48077;48.104;11.702;2024-01-30T01:37:39;5.32;;;4.80;;
62102;SDS011;48077;48.104;11.702;2024-01-30T01:40:09;6.60;;;5.93;;
62102;SDS011;48077;48.104;11.702;2024-01-30T01:42:37;6.18;;;4.88;;
62102;SDS011;48077;48.104;11.702;2024-01-30T01:45:06;7.95;;;4.72;;
62102;SDS011;48077;48.104;11.702;2024-01-30T01:47:34;5.60;;;5.00;;
62102;SDS011;48077;48.104;11.702;2024-01-30T01:50:02;8.02;;;7.32;;
62102;SDS011;48077;48.104;11.702;2024-01-30T01:52:30;6.50;;;4.55;;
62102;SDS011;48077;48.104;11.702;2024-01-30T01:54:58;5.38;;;4.85;;
62102;SDS011;48077;48.104;11.702;2024-01-30T01:57:28;5.90;;;4.90;;
62102;SDS011;48077;48.104;11.702;2024-01-30T01:59:55;4.85;;;4.15;;
62102;SDS011;48077;48.104;11.702;2024-01-30T02:02:23;7.22;;;4.57;;
62102;SDS011;48077;48.104;11.702;2024-01-30T02:04:53;6.05;;;5.00;;
62102;SDS011;48077;48.104;11.702;2024-01-30T02:07:21;7.38;;;5.03;;
62102;SDS011;48077;48.104;11.702;2024-01-30T02:09:49;7.53;;;6.63;;
62102;SDS011;48077;48.104;11.702;2024-01-30T02:12:16;5.28;;;4.25;;
62102;SDS011;48077;48.104;11.702;2024-01-30T02:14:46;5.05;;;4.55;;
62102;SDS011;48077;48.104;11.702;2024-01-30T02:17:14;8.20;;;5.13;;
62102;SDS011;48077;48.104;11.702;2024-01-30T02:19:43;8.07;;;4.65;;
62102;SDS011;48077;48.104;11.702;2024-01-30T02:22:12;7.07;;;5.05;;
62102;SDS011;48077;48.104;11.702;2024-01-30T02:24:40;9.02;;;4.85;;
62102;SDS011;48077;48.104;11.702;2024-01-30T02:27:08;6.05;;;4.30;;
62102;SDS011;48077;48.104;11.702;2024-01-30T02:32:04;4.70;;;3.53;;
62102;SDS011;48077;48.104;11.702;2024-01-30T02:34:33;7.05;;;5.03;;
62102;SDS011;48077;48.104;11.702;2024-01-30T02:37:01;7.07;;;4.50;;
62102;SDS011;48077;48.104;11.702;2024-01-30T02:39:30;8.43;;;6.35;;
62102;SDS011;48077;48.104;11.702;2024-01-30T02:41:58;5.18;;;4.25;;
62102;SDS011;48077;48.104;11.702;2024-01-30T02:44:26;6.25;;;5.65;;
62102;SDS011;48077;48.104;11.702;2024-01-30T02:46:54;6.00;;;4.47;;
62102;SDS011;48077;48.104;11.702;2024-01-30T02:49:22;7.18;;;4.28;;
62102;SDS011;48077;48.104;11.702;2024-01-30T02:54:18;5.60;;;4.95;;
62102;SDS011;48077;48.104;11.702;2024-01-30T02:56:47;5.18;;;4.25;;
62102;SDS011;48077;48.104;11.702;2024-01-30T02:59:15;5.93;;;5.20;;
62102;SDS011;48077;48.104;11.702;2024-01-30T03:01:43;6.43;;;4.72;;
62102;SDS011;48077;48.104;11.702;2024-01-30T03:04:11;5.72;;;4.18;;
62102;SDS011;48077;48.104;11.702;2024-01-30T03:06:44;8.13;;;5.00;;
62102;SDS011;48077;48.104;11.702;2024-01-30T03:09:15;5.20;;;4.28;;
62102;SDS011;48077;48.104;11.702;2024-01-30T03:11:43;4.38;;;3.97;;
62102;SDS011;48077;48.104;11.702;2024-01-30T03:14:13;5.13;;;4.57;;
62102;SDS011;48077;48.104;11.702;2024-01-30T03:16:40;4.82;;;4.00;;
62102;SDS011;48077;48.104;11.702;2024-01-30T03:19:08;6.38;;;5.25;;
62102;SDS011;48077;48.104;11.702;2024-01-30T03:24:04;5.20;;;4.28;;
62102;SDS011;48077;48.104;11.702;2024-01-30T03:26:32;6.53;;;5.53;;
62102;SDS011;48077;48.104;11.702;2024-01-30T03:29:00;5.30;;;4.80;;
62102;SDS011;48077;48.104;11.702;2024-01-30T03:31:29;4.68;;;4.25;;
62102;SDS011;48077;48.104;11.702;2024-01-30T03:33:57;5.95;;;5.45;;
62102;SDS011;48077;48.104;11.702;2024-01-30T03:36:25;5.15;;;4.57;;
62102;SDS011;48077;48.104;11.702;2024-01-30T03:38:52;5.57;;;4.45;;
62102;SDS011;48077;48.104;11.702;2024-01-30T03:41:20;4.13;;;3.72;;
62102;SDS011;48077;48.104;11.702;2024-01-30T03:43:48;4.47;;;3.58;;
62102;SDS011;48077;48.104;11.702;2024-01-30T03:46:16;5.25;;;4.10;;
62102;SDS011;48077;48.104;11.702;2024-01-30T03:48:45;4.50;;;3.72;;
62102;SDS011;48077;48.104;11.702;2024-01-30T03:51:13;7.90;;;7.30;;
62102;SDS011;48077;48.104;11.702;2024-01-30T03:53:42;5.78;;;5.30;;
62102;SDS011;48077;48.104;11.702;2024-01-30T03:56:12;4.32;;;3.38;;
62102;SDS011;48077;48.104;11.702;2024-01-30T03:58:40;4.47;;;4.07;;
62102;SDS011;48077;48.104;11.702;2024-01-30T04:01:12;4.30;;;3.90;;
62102;SDS011;48077;48.104;11.702;2024-01-30T04:03:40;4.10;;;3.70;;
62102;SDS011;48077;48.104;11.702;2024-01-30T04:06:12;3.70;;;3.33;;
62102;SDS011;48077;48.104;11.702;2024-01-30T04:08:39;3.78;;;3.33;;
62102;SDS011;48077;48.104;11.702;2024-01-30T04:11:07;5.72;;;3.35;;
62102;SDS011;48077;48.104;11.702;2024-01-30T04:13:35;6.47;;;4.40;;
62102;SDS011;48077;48.104;11.702;2024-01-30T04:16:03;4.38;;;3.20;;
62102;SDS011;48077;48.104;11.702;2024-01-30T04:18:31;3.22;;;2.92;;
62102;SDS011;48077;48.104;11.702;2024-01-30T04:21:00;5.93;;;5.43;;
62102;SDS011;48077;48.104;11.702;2024-01-30T04:23:29;3.38;;;3.08;;
62102;SDS011;48077;48.104;11.702;2024-01-30T04:25:57;5.82;;;5.38;;
62102;SDS011;48077;48.104;11.702;2024-01-30T04:28:25;5.40;;;3.72;;
62102;SDS011;48077;48.104;11.702;2024-01-30T04:30:53;4.95;;;4.45;;
62102;SDS011;48077;48.104;11.702;2024-01-30T04:33:20;4.93;;;4.53;;
62102;SDS011;48077;48.104;11.702;2024-01-30T04:35:48;4.57;;;3.58;;
62102;SDS011;48077;48.104;11.702;2024-01-30T04:38:16;4.90;;;4.13;;
62102;SDS011;48077;48.104;11.702;2024-01-30T04:40:45;6.05;;;5.55;;
62102;SDS011;48077;48.104;11.702;2024-01-30T04:43:13;4.97;;;2.95;;
62102;SDS011;48077;48.104;11.702;2024-01-30T04:45:41;4.38;;;4.05;;
62102;SDS011;48077;48.104;11.702;2024-01-30T04:50:37;5.55;;;3.33;;
62102;SDS011;48077;48.104;11.702;2024-01-30T04:53:04;3.97;;;3.67;;
62102;SDS011;48077;48.104;11.702;2024-01-30T04:55:32;4.53;;;3.70;;
62102;SDS011;48077;48.104;11.702;2024-01-30T04:58:01;4.10;;;2.88;;
62102;SDS011;48077;48.104;11.702;2024-01-30T05:00:29;5.05;;;4.63;;
62102;SDS011;48077;48.104;11.702;2024-01-30T05:02:57;4.25;;;3.85;;
62102;SDS011;48077;48.104;11.702;2024-01-30T05:05:25;4.05;;;3.83;;
62102;SDS011;48077;48.104;11.702;2024-01-30T05:07:53;4.32;;;3.30;;
62102;SDS011;48077;48.104;11.702;2024-01-30T05:10:21;6.22;;;3.88;;
62102;SDS011;48077;48.104;11.702;2024-01-30T05:12:48;3.58;;;2.63;;
62102;SDS011;48077;48.104;11.702;2024-01-30T05:15:17;3.33;;;2.85;;
62102;SDS011;48077;48.104;11.702;2024-01-30T05:17:46;2.75;;;2.55;;
62102;SDS011;48077;48.104;11.702;2024-01-30T05:20:14;4.72;;;4.32;;
62102;SDS011;48077;48.104;11.702;2024-01-30T05:22:42;4.50;;;2.90;;
62102;SDS011;48077;48.104;11.702;2024-01-30T05:25:12;4.50;;;2.75;;
62102;SDS011;48077;48.104;11.702;2024-01-30T05:27:40;3.78;;;2.80;;
62102;SDS011;48077;48.104;11.702;2024-01-30T05:33:57;4.10;;;3.78;;
62102;SDS011;48077;48.104;11.702;2024-01-30T05:36:25;5.88;;;5.47;;
62102;SDS011;48077;48.104;11.702;2024-01-30T05:38:52;3.63;;;3.33;;
62102;SDS011;48077;48.104;11.702;2024-01-30T05:41:20;3.22;;;3.03;;
62102;SDS011;48077;48.104;11.702;2024-01-30T05:43:48;2.88;;;2.65;;
62102;SDS011;48077;48.104;11.702;2024-01-30T05:46:16;3.30;;;3.00;;
62102;SDS011;48077;48.104;11.702;2024-01-30T05:48:46;4.53;;;3.67;;
62102;SDS011;48077;48.104;11.702;2024-01-30T05:51:15;3.78;;;2.85;;
62102;SDS011;48077;48.104;11.702;2024-01-30T05:53:43;6.43;;;5.93;;
62102;SDS011;48077;48.104;11.702;2024-01-30T05:56:11;3.33;;;3.08;;
62102;SDS011;48077;48.104;11.702;2024-01-30T05:58:39;3.90;;;3.60;;
62102;SDS011;48077;48.104;11.702;2024-01-30T06:01:06;4.15;;;3.85;;
62102;SDS011;48077;48.104;11.702;2024-01-30T06:03:35;2.60;;;2.38;;
62102;SDS011;48077;48.104;11.702;2024-01-30T06:06:03;3.22;;;2.95;;
62102;SDS011;48077;48.104;11.702;2024-01-30T06:11:00;3.55;;;3.25;;
62102;SDS011;48077;48.104;11.702;2024-01-30T06:13:28;2.55;;;2.25;;
62102;SDS011;48077;48.104;11.702;2024-01-30T06:15:58;5.38;;;2.97;;
62102;SDS011;48077;48.104;11.702;2024-01-30T06:18:25;4.05;;;2.80;;
62102;SDS011;48077;48.104;11.702;2024-01-30T06:20:55;3.40;;;3.17;;
62102;SDS011;48077;48.104;11.702;2024-01-30T06:23:23;4.03;;;3.13;;
62102;SDS011;48077;48.104;11.702;2024-01-30T06:25:52;4.13;;;3.72;;
62102;SDS011;48077;48.104;11.702;2024-01-30T06:28:20;3.15;;;2.90;;
62102;SDS011;48077;48.104;11.702;2024-01-30T06:30:48;3.80;;;3.50;;
62102;SDS011;48077;48.104;11.702;2024-01-30T06:33:16;3.53;;;3.22;;
62102;SDS011;48077;48.104;11.702;2024-01-30T06:35:44;4.88;;;4.03;;
62102;SDS011;48077;48.104;11.702;2024-01-30T06:38:12;5.18;;;4.00;;
62102;SDS011;48077;48.104;11.702;2024-01-30T06:40:41;4.80;;;3.35;;
62102;SDS011;48077;48.104;11.702;2024-01-30T06:43:10;6.85;;;3.88;;
62102;SDS011;48077;48.104;11.702;2024-01-30T06:45:38;6.85;;;3.30;;
62102;SDS011;48077;48.104;11.702;2024-01-30T06:48:07;5.28;;;4.47;;
62102;SDS011;48077;48.104;11.702;2024-01-30T06:50:35;10.65;;;5.10;;
62102;SDS011;48077;48.104;11.702;2024-01-30T06:53:02;9.23;;;6.40;;
62102;SDS011;48077;48.104;11.702;2024-01-30T06:55:30;7.65;;;4.93;;
62102;SDS011;48077;48.104;11.702;2024-01-30T06:57:58;7.55;;;6.30;;
62102;SDS011;48077;48.104;11.702;2024-01-30T07:00:27;6.72;;;3.90;;
62102;SDS011;48077;48.104;11.702;2024-01-30T07:02:55;6.72;;;4.72;;
62102;SDS011;48077;48.104;11.702;2024-01-30T07:05:23;5.50;;;4.53;;
62102;SDS011;48077;48.104;11.702;2024-01-30T07:10:19;5.43;;;4.90;;
62102;SDS011;48077;48.104;11.702;2024-01-30T07:12:47;8.90;;;6.65;;
62102;SDS011;48077;48.104;11.702;2024-01-30T07:15:15;7.68;;;5.95;;
62102;SDS011;48077;48.104;11.702;2024-01-30T07:17:50;4.90;;;4.35;;
62102;SDS011;48077;48.104;11.702;2024-01-30T07:20:18;4.15;;;3.28;;
62102;SDS011;48077;48.104;11.702;2024-01-30T07:22:47;5.68;;;5.10;;
62102;SDS011;48077;48.104;11.702;2024-01-30T07:25:14;6.55;;;5.47;;
62102;SDS011;48077;48.104;11.702;2024-01-30T07:27:43;7.97;;;5.90;;
62102;SDS011;48077;48.104;11.702;2024-01-30T07:30:11;4.00;;;3.13;;
62102;SDS011;48077;48.104;11.702;2024-01-30T07:32:39;5.57;;;5.07;;
62102;SDS011;48077;48.104;11.702;2024-01-30T07:35:08;4.85;;;3.70;;
62102;SDS011;48077;48.104;11.702;2024-01-30T07:37:36;5.75;;;3.70;;
62102;SDS011;48077;48.104;11.702;2024-01-30T07:40:05;3.45;;;3.22;;
62102;SDS011;48077;48.104;11.702;2024-01-30T07:42:33;3.58;;;3.28;;
62102;SDS011;48077;48.104;11.702;2024-01-30T07:45:01;3.78;;;3.47;;
62102;SDS011;48077;48.104;11.702;2024-01-30T07:47:29;4.15;;;3.75;;
62102;SDS011;48077;48.104;11.702;2024-01-30T07:49:57;5.10;;;3.40;;
62102;SDS011;48077;48.104;11.702;2024-01-30T07:54:54;5.40;;;3.80;;
62102;SDS011;48077;48.104;11.702;2024-01-30T07:57:22;7.55;;;3.60;;
62102;SDS011;48077;48.104;11.702;2024-01-30T07:59:51;9.50;;;6.28;;
62102;SDS011;48077;48.104;11.702;2024-01-30T08:02:18;4.30;;;3.38;;
62102;SDS011;48077;48.104;11.702;2024-01-30T08:04:47;4.57;;;3.88;;
62102;SDS011;48077;48.104;11.702;2024-01-30T08:07:16;6.05;;;5.50;;
62102;SDS011;48077;48.104;11.702;2024-01-30T08:09:45;3.35;;;3.05;;
62102;SDS011;48077;48.104;11.702;2024-01-30T08:12:13;5.93;;;5.45;;
62102;SDS011;48077;48.104;11.702;2024-01-30T08:14:41;4.60;;;3.33;;
62102;SDS011;48077;48.104;11.702;2024-01-30T08:17:08;7.00;;;2.85;;
62102;SDS011;48077;48.104;11.702;2024-01-30T08:19:36;4.85;;;3.97;;
62102;SDS011;48077;48.104;11.702;2024-01-30T08:22:04;9.65;;;3.35;;
62102;SDS011;48077;48.104;11.702;2024-01-30T08:24:32;3.33;;;3.03;;
62102;SDS011;48077;48.104;11.702;2024-01-30T08:27:01;4.03;;;3.13;;
62102;SDS011;48077;48.104;11.702;2024-01-30T08:29:31;4.80;;;3.08;;
62102;SDS011;48077;48.104;11.702;2024-01-30T08:31:59;11.77;;;4.93;;
62102;SDS011;48077;48.104;11.702;2024-01-30T08:34:27;23.70;;;9.45;;
62102;SDS011;48077;48.104;11.702;2024-01-30T08:36:54;22.48;;;6.70;;
62102;SDS011;48077;48.104;11.702;2024-01-30T08:39:22;14.23;;;8.52;;
62102;SDS011;48077;48.104;11.702;2024-01-30T08:41:50;11.50;;;5.90;;
62102;SDS011;48077;48.104;11.702;2024-01-30T08:44:19;8.68;;;5.10;;
62102;SDS011;48077;48.104;11.702;2024-01-30T08:46:47;9.07;;;4.32;;
62102;SDS011;48077;48.104;11.702;2024-01-30T08:49:16;5.78;;;3.05;;
62102;SDS011;48077;48.104;11.702;2024-01-30T08:51:44;11.93;;;4.82;;
62102;SDS011;48077;48.104;11.702;2024-01-30T08:56:40;4.47;;;3.25;;
62102;SDS011;48077;48.104;11.702;2024-01-30T08:59:07;7.53;;;3.45;;
62102;SDS011;48077;48.104;11.702;2024-01-30T09:01:40;6.47;;;2.35;;
62102;SDS011;48077;48.104;11.702;2024-01-30T09:04:20;5.72;;;2.17;;
62102;SDS011;48077;48.104;11.702;2024-01-30T09:06:51;11.95;;;3.63;;
62102;SDS011;48077;48.104;11.702;2024-01-30T09:11:47;8.18;;;2.92;;
62102;SDS011;48077;48.104;11.702;2024-01-30T09:14:14;11.52;;;2.35;;
62102;SDS011;48077;48.104;11.702;2024-01-30T09:16:44;11.25;;;3.55;;
62102;SDS011;48077;48.104;11.702;2024-01-30T09:19:11;3.97;;;2.65;;
62102;SDS011;48077;48.104;11.702;2024-01-30T09:21:39;3.60;;;2.10;;
62102;SDS011;48077;48.104;11.702;2024-01-30T09:24:07;6.57;;;2.25;;
62102;SDS011;48077;48.104;11.702;2024-01-30T09:26:35;5.00;;;2.53;;
62102;SDS011;48077;48.104;11.702;2024-01-30T09:31:30;5.57;;;1.80;;
62102;SDS011;48077;48.104;11.702;2024-01-30T09:34:00;6.50;;;2.45;;
62102;SDS011;48077;48.104;11.702;2024-01-30T09:36:28;7.60;;;2.83;;
62102;SDS011;48077;48.104;11.702;2024-01-30T09:38:55;2.83;;;2.10;;
62102;SDS011;48077;48.104;11.702;2024-01-30T09:41:24;4.78;;;1.70;;
62102;SDS011;48077;48.104;11.702;2024-01-30T09:43:52;4.32;;;1.77;;
62102;SDS011;48077;48.104;11.702;2024-01-30T09:46:25;5.85;;;2.05;;
62102;SDS011;48077;48.104;11.702;2024-01-30T09:48:57;3.95;;;2.30;;
62102;SDS011;48077;48.104;11.702;2024-01-30T09:51:27;3.22;;;1.85;;
62102;SDS011;48077;48.104;11.702;2024-01-30T09:53:56;6.65;;;2.58;;
62102;SDS011;48077;48.104;11.702;2024-01-30T09:56:24;4.95;;;1.75;;
62102;SDS011;48077;48.104;11.702;2024-01-30T10:01:19;2.20;;;1.90;;
62102;SDS011;48077;48.104;11.702;2024-01-30T10:03:50;4.55;;;2.42;;
62102;SDS011;48077;48.104;11.702;2024-01-30T10:06:18;6.55;;;1.92;;
62102;SDS011;48077;48.104;11.702;2024-01-30T10:08:49;5.47;;;4.07;;
62102;SDS011;48077;48.104;11.702;2024-01-30T10:11:17;2.00;;;1.40;;
62102;SDS011;48077;48.104;11.702;2024-01-30T10:13:45;2.00;;;1.33;;
62102;SDS011;48077;48.104;11.702;2024-01-30T10:16:13;5.63;;;1.40;;
62102;SDS011;48077;48.104;11.702;2024-01-30T10:18:43;5.40;;;1.70;;
62102;SDS011;48077;48.104;11.702;2024-01-30T10:21:11;5.22;;;1.85;;
62102;SDS011;48077;48.104;11.702;2024-01-30T10:23:39;1.48;;;1.02;;
62102;SDS011;48077;48.104;11.702;2024-01-30T10:26:08;2.13;;;1.25;;
62102;SDS011;48077;48.104;11.702;2024-01-30T10:28:36;2.63;;;1.67;;
62102;SDS011;48077;48.104;11.702;2024-01-30T10:31:04;3.15;;;1.60;;
62102;SDS011;48077;48.104;11.702;2024-01-30T10:33:33;3.58;;;1.38;;
62102;SDS011;48077;48.104;11.702;2024-01-30T10:36:01;2.92;;;1.55;;
62102;SDS011;48077;48.104;11.702;2024-01-30T10:38:31;2.75;;;1.58;;
62102;SDS011;48077;48.104;11.702;2024-01-30T10:41:00;4.10;;;1.80;;
62102;SDS011;48077;48.104;11.702;2024-01-30T10:43:32;2.47;;;1.77;;
62102;SDS011;48077;48.104;11.702;2024-01-30T10:46:05;3.92;;;1.92;;
62102;SDS011;48077;48.104;11.702;2024-01-30T10:48:39;5.50;;;1.77;;
62102;SDS011;48077;48.104;11.702;2024-01-30T10:51:11;4.55;;;3.45;;
62102;SDS011;48077;48.104;11.702;2024-01-30T10:53:40;3.90;;;1.55;;
62102;SDS011;48077;48.104;11.702;2024-01-30T10:56:10;1.75;;;1.45;;
62102;SDS011;48077;48.104;11.702;2024-01-30T10:58:40;5.50;;;2.15;;
62102;SDS011;48077;48.104;11.702;2024-01-30T11:01:08;7.05;;;2.58;;
62102;SDS011;48077;48.104;11.702;2024-01-30T11:03:37;3.60;;;2.53;;
62102;SDS011;48077;48.104;11.702;2024-01-30T11:06:05;3.28;;;2.30;;
62102;SDS011;48077;48.104;11.702;2024-01-30T11:08:38;3.83;;;2.08;;
62102;SDS011;48077;48.104;11.702;2024-01-30T11:11:08;5.50;;;1.67;;
62102;SDS011;48077;48.104;11.702;2024-01-30T11:13:38;6.45;;;1.58;;
62102;SDS011;48077;48.104;11.702;2024-01-30T11:16:07;3.58;;;1.85;;
62102;SDS011;48077;48.104;11.702;2024-01-30T11:18:38;5.35;;;1.40;;
62102;SDS011;48077;48.104;11.702;2024-01-30T11:21:06;6.13;;;1.55;;
62102;SDS011;48077;48.104;11.702;2024-01-30T11:23:34;4.20;;;1.85;;
62102;SDS011;48077;48.104;11.702;2024-01-30T11:26:03;2.38;;;1.67;;
62102;SDS011;48077;48.104;11.702;2024-01-30T11:28:32;9.25;;;1.23;;
62102;SDS011;48077;48.104;11.702;2024-01-30T11:31:04;4.93;;;1.23;;
62102;SDS011;48077;48.104;11.702;2024-01-30T11:33:34;4.00;;;0.82;;
62102;SDS011;48077;48.104;11.702;2024-01-30T11:36:04;4.00;;;2.38;;
62102;SDS011;48077;48.104;11.702;2024-01-30T11:38:33;2.17;;;1.55;;
62102;SDS011;48077;48.104;11.702;2024-01-30T11:41:01;5.28;;;1.90;;
62102;SDS011;48077;48.104;11.702;2024-01-30T11:43:30;5.18;;;2.67;;
62102;SDS011;48077;48.104;11.702;2024-01-30T11:46:00;3.92;;;1.42;;
62102;SDS011;48077;48.104;11.702;2024-01-30T11:48:28;6.50;;;1.85;;
62102;SDS011;48077;48.104;11.702;2024-01-30T11:50:58;3.38;;;1.55;;
62102;SDS011;48077;48.104;11.702;2024-01-30T11:53:25;2.83;;;1.10;;
62102;SDS011;48077;48.104;11.702;2024-01-30T11:55:54;4.47;;;2.30;;
62102;SDS011;48077;48.104;11.702;2024-01-30T11:58:24;2.47;;;1.05;;
62102;SDS011;48077;48.104;11.702;2024-01-30T12:00:52;8.25;;;1.98;;
62102;SDS011;48077;48.104;11.702;2024-01-30T12:03:22;9.82;;;2.38;;
62102;SDS011;48077;48.104;11.702;2024-01-30T12:05:54;3.13;;;1.90;;
62102;SDS011;48077;48.104;11.702;2024-01-30T12:08:25;9.23;;;1.45;;
62102;SDS011;48077;48.104;11.702;2024-01-30T12:10:57;4.63;;;1.63;;
62102;SDS011;48077;48.104;11.702;2024-01-30T12:13:27;3.08;;;1.38;;
62102;SDS011;48077;48.104;11.702;2024-01-30T12:15:59;3.78;;;1.42;;
62102;SDS011;48077;48.104;11.702;2024-01-30T12:18:27;2.53;;;1.35;;
62102;SDS011;48077;48.104;11.702;2024-01-30T12:20:57;2.88;;;1.50;;
62102;SDS011;48077;48.104;11.702;2024-01-30T12:23:28;4.57;;;1.95;;
62102;SDS011;48077;48.104;11.702;2024-01-30T12:25:56;2.95;;;1.63;;
62102;SDS011;48077;48.104;11.702;2024-01-30T12:28:24;4.75;;;1.35;;
62102;SDS011;48077;48.104;11.702;2024-01-30T12:30:55;5.50;;;1.58;;
62102;SDS011;48077;48.104;11.702;2024-01-30T12:33:26;6.47;;;2.40;;
62102;SDS011;48077;48.104;11.702;2024-01-30T12:35:54;7.22;;;2.35;;
62102;SDS011;48077;48.104;11.702;2024-01-30T12:38:30;6.78;;;2.17;;
62102;SDS011;48077;48.104;11.702;2024-01-30T12:40:58;10.73;;;3.35;;
62102;SDS011;48077;48.104;11.702;2024-01-30T12:43:26;4.93;;;4.45;;
62102;SDS011;48077;48.104;11.702;2024-01-30T12:46:04;4.72;;;1.42;;
62102;SDS011;48077;48.104;11.702;2024-01-30T12:48:32;4.78;;;1.70;;
62102;SDS011;48077;48.104;11.702;2024-01-30T12:51:01;5.20;;;3.08;;
62102;SDS011;48077;48.104;11.702;2024-01-30T12:53:30;5.53;;;1.75;;
62102;SDS011;48077;48.104;11.702;2024-01-30T12:55:58;3.53;;;2.28;;
62102;SDS011;48077;48.104;11.702;2024-01-30T12:58:26;4.75;;;1.83;;
62102;SDS011;48077;48.104;11.702;2024-01-30T13:00:53;5.82;;;1.58;;
62102;SDS011;48077;48.104;11.702;2024-01-30T13:03:22;4.47;;;1.60;;
62102;SDS011;48077;48.104;11.702;2024-01-30T13:05:50;6.22;;;1.58;;
62102;SDS011;48077;48.104;11.702;2024-01-30T13:08:18;5.35;;;1.73;;
62102;SDS011;48077;48.104;11.702;2024-01-30T13:10:47;2.17;;;1.60;;
62102;SDS011;48077;48.104;11.702;2024-01-30T13:13:16;5.57;;;1.27;;
62102;SDS011;48077;48.104;11.702;2024-01-30T13:15:46;7.25;;;2.83;;
62102;SDS011;48077;48.104;11.702;2024-01-30T13:18:14;4.43;;;1.95;;
62102;SDS011;48077;48.104;11.702;2024-01-30T13:20:42;4.68;;;1.92;;
62102;SDS011;48077;48.104;11.702;2024-01-30T13:23:10;6.75;;;1.75;;
62102;SDS011;48077;48.104;11.702;2024-01-30T13:25:38;3.25;;;2.25;;
62102;SDS011;48077;48.104;11.702;2024-01-30T13:28:07;3.42;;;1.73;;
62102;SDS011;48077;48.104;11.702;2024-01-30T13:30:35;9.38;;;5.63;;
62102;SDS011;48077;48.104;11.702;2024-01-30T13:33:03;1.80;;;1.40;;
62102;SDS011;48077;48.104;11.702;2024-01-30T13:35:32;4.20;;;1.98;;
62102;SDS011;48077;48.104;11.702;2024-01-30T13:37:59;3.05;;;1.35;;
62102;SDS011;48077;48.104;11.702;2024-01-30T13:40:27;4.90;;;1.60;;
62102;SDS011;48077;48.104;11.702;2024-01-30T13:42:55;8.52;;;3.05;;
62102;SDS011;48077;48.104;11.702;2024-01-30T13:45:26;5.45;;;2.65;;
62102;SDS011;48077;48.104;11.702;2024-01-30T13:47:53;5.07;;;1.85;;
62102;SDS011;48077;48.104;11.702;2024-01-30T13:50:21;5.85;;;2.38;;
62102;SDS011;48077;48.104;11.702;2024-01-30T13:52:49;3.00;;;1.55;;
62102;SDS011;48077;48.104;11.702;2024-01-30T13:55:17;5.57;;;1.85;;
62102;SDS011;48077;48.104;11.702;2024-01-30T13:57:45;6.80;;;2.22;;
62102;SDS011;48077;48.104;11.702;2024-01-30T14:00:16;6.75;;;1.50;;
62102;SDS011;48077;48.104;11.702;2024-01-30T14:02:45;3.78;;;1.83;;
62102;SDS011;48077;48.104;11.702;2024-01-30T14:05:13;5.80;;;1.38;;
62102;SDS011;48077;48.104;11.702;2024-01-30T14:07:42;4.72;;;1.63;;
62102;SDS011;48077;48.104;11.702;2024-01-30T14:10:11;6.40;;;2.08;;
62102;SDS011;48077;48.104;11.702;2024-01-30T14:12:41;4.40;;;1.63;;
62102;SDS011;48077;48.104;11.702;2024-01-30T14:15:10;5.70;;;1.58;;
62102;SDS011;48077;48.104;11.702;2024-01-30T14:17:54;4.53;;;2.17;;
62102;SDS011;48077;48.104;11.702;2024-01-30T14:20:23;8.18;;;2.05;;
62102;SDS011;48077;48.104;11.702;2024-01-30T14:22:51;3.83;;;2.20;;
62102;SDS011;48077;48.104;11.702;2024-01-30T14:25:19;12.93;;;3.70;;
62102;SDS011;48077;48.104;11.702;2024-01-30T14:27:47;6.88;;;1.73;;
62102;SDS011;48077;48.104;11.702;2024-01-30T14:30:15;5.22;;;4.82;;
62102;SDS011;48077;48.104;11.702;2024-01-30T14:32:44;8.50;;;1.45;;
62102;SDS011;48077;48.104;11.702;2024-01-30T14:35:14;4.03;;;1.92;;
62102;SDS011;48077;48.104;11.702;2024-01-30T14:37:42;6.28;;;3.70;;
62102;SDS011;48077;48.104;11.702;2024-01-30T14:40:10;6.82;;;3.67;;
62102;SDS011;48077;48.104;11.702;2024-01-30T14:42:38;7.30;;;2.25;;
62102;SDS011;48077;48.104;11.702;2024-01-30T14:45:07;5.47;;;2.70;;
62102;SDS011;48077;48.104;11.702;2024-01-30T14:47:36;3.80;;;1.77;;
62102;SDS011;48077;48.104;11.702;2024-01-30T14:50:04;4.82;;;1.50;;
62102;SDS011;48077;48.104;11.702;2024-01-30T14:52:36;5.97;;;1.75;;
62102;SDS011;48077;48.104;11.702;2024-01-30T14:55:06;4.05;;;1.60;;
62102;SDS011;48077;48.104;11.702;2024-01-30T14:57:35;8.15;;;1.85;;
62102;SDS011;48077;48.104;11.702;2024-01-30T15:00:05;6.38;;;2.30;;
62102;SDS011;48077;48.104;11.702;2024-01-30T15:02:33;6.75;;;2.33;;
62102;SDS011;48077;48.104;11.702;2024-01-30T15:05:02;3.63;;;2.45;;
62102;SDS011;48077;48.104;11.702;2024-01-30T15:07:31;8.15;;;2.38;;
62102;SDS011;48077;48.104;11.702;2024-01-30T15:10:07;6.40;;;2.03;;
62102;SDS011;48077;48.104;11.702;2024-01-30T15:12:36;7.30;;;5.20;;
62102;SDS011;48077;48.104;11.702;2024-01-30T15:15:06;7.40;;;2.50;;
62102;SDS011;48077;48.104;11.702;2024-01-30T15:17:36;5.03;;;2.38;;
62102;SDS011;48077;48.104;11.702;2024-01-30T15:20:04;8.43;;;1.98;;
62102;SDS011;48077;48.104;11.702;2024-01-30T15:22:33;7.70;;;2.13;;
62102;SDS011;48077;48.104;11.702;2024-01-30T15:25:01;7.82;;;3.03;;
62102;SDS011;48077;48.104;11.702;2024-01-30T15:27:31;8.40;;;2.88;;